Time;durP1;ratioP1;P1;durP2;ratioP2;P2;SDS_P1;SDS_P2;PMS_P1;PMS_P2;Temp;Humidity;BMP_temperature;BMP_pressure;BME280_temperature;BME280_humidity;BME280_pressure;Samples;Min_cycle;Max_cycle;Signal;HPM_P1;HPM_P2
2023/06/30 00:01:32;;;;;;;6.40;4.00;;;16.80;99.90;;;;;;5075985;28;20608;-68
2023/06/30 00:03:57;;;;;;;6.47;3.50;;;16.90;99.90;;;;;;5075876;28;20173;-69
2023/06/30 00:06:24;;;;;;;8.10;4.00;;;16.90;99.90;;;;;;5074694;28;20176;-68
2023/06/30 00:08:50;;;;;;;4.47;3.40;;;16.90;99.90;;;;;;5075965;28;20179;-67
2023/06/30 00:11:17;;;;;;;6.40;3.40;;;16.90;99.90;;;;;;5075866;28;20172;-67
2023/06/30 00:13:43;;;;;;;5.80;3.60;;;17.00;99.90;;;;;;5075486;28;20268;-69
2023/06/30 00:16:09;;;;;;;9.00;3.37;;;17.00;99.90;;;;;;5075709;28;20632;-67
2023/06/30 00:18:34;;;;;;;4.97;3.47;;;17.00;99.90;;;;;;5075838;28;20242;-68
2023/06/30 00:21:01;;;;;;;6.50;3.37;;;17.00;99.90;;;;;;5075497;28;20201;-69
2023/06/30 00:23:27;;;;;;;6.70;3.40;;;17.00;99.90;;;;;;5075516;28;20655;-69
2023/06/30 00:25:54;;;;;;;7.23;3.50;;;17.00;99.90;;;;;;5075592;28;20168;-69
2023/06/30 00:28:20;;;;;;;6.90;3.38;;;16.90;99.90;;;;;;5075275;28;20173;-69
2023/06/30 00:30:45;;;;;;;6.13;3.30;;;16.90;99.90;;;;;;5075393;28;20295;-70
2023/06/30 00:33:11;;;;;;;5.85;3.50;;;16.90;99.90;;;;;;5075589;28;20677;-70
2023/06/30 00:35:37;;;;;;;5.57;3.53;;;16.90;99.90;;;;;;5075328;28;20204;-69
2023/06/30 00:38:03;;;;;;;7.27;3.30;;;16.90;99.90;;;;;;5075169;28;20756;-68
2023/06/30 00:40:28;;;;;;;4.37;3.00;;;17.00;99.90;;;;;;5075385;28;20179;-70
2023/06/30 00:42:54;;;;;;;7.67;3.20;;;17.00;99.90;;;;;;5075015;28;20616;-69
2023/06/30 00:45:19;;;;;;;5.70;3.00;;;17.10;99.90;;;;;;5075244;28;20173;-69
2023/06/30 00:47:45;;;;;;;6.63;3.37;;;17.00;99.90;;;;;;5075125;28;20180;-68
2023/06/30 00:50:12;;;;;;;5.85;3.08;;;17.10;99.90;;;;;;5075509;28;20619;-68
2023/06/30 00:52:39;;;;;;;4.40;2.85;;;17.10;99.90;;;;;;5075240;28;20207;-67
2023/06/30 00:55:07;;;;;;;8.00;3.20;;;17.10;99.90;;;;;;5075215;28;20632;-70
2023/06/30 00:57:33;;;;;;;7.50;3.17;;;17.10;99.90;;;;;;5074636;28;20226;-69
2023/06/30 01:00:05;;;;;;;8.50;2.87;;;17.10;99.90;;;;;;5074803;28;20260;-70
2023/06/30 01:02:34;;;;;;;6.22;3.42;;;17.10;99.90;;;;;;5075027;28;20176;-68
2023/06/30 01:05:11;;;;;;;7.50;3.40;;;17.10;99.90;;;;;;5075051;28;20175;-68
2023/06/30 01:07:56;;;;;;;9.40;3.60;;;17.00;99.90;;;;;;5075007;28;20206;-68
2023/06/30 01:10:25;;;;;;;8.07;3.35;;;17.00;99.90;;;;;;5074315;28;20169;-69
2023/06/30 01:12:52;;;;;;;5.37;3.07;;;17.00;99.90;;;;;;5074503;28;20169;-69
2023/06/30 01:15:18;;;;;;;7.20;3.30;;;17.00;99.90;;;;;;5074626;28;20238;-67
2023/06/30 01:17:56;;;;;;;5.30;3.20;;;17.10;99.90;;;;;;5074355;28;20301;-68
2023/06/30 01:20:23;;;;;;;7.67;3.37;;;17.10;99.90;;;;;;5074480;28;20255;-68
2023/06/30 01:22:56;;;;;;;5.23;2.90;;;17.10;99.90;;;;;;5074464;28;20703;-67
2023/06/30 01:25:26;;;;;;;7.70;3.53;;;17.10;99.90;;;;;;5073919;28;20200;-68
2023/06/30 01:27:53;;;;;;;7.40;3.57;;;17.10;99.90;;;;;;5074550;28;20176;-67
2023/06/30 01:30:20;;;;;;;7.40;3.30;;;17.10;99.90;;;;;;5074379;28;20181;-67
2023/06/30 01:32:46;;;;;;;7.80;3.43;;;17.10;99.90;;;;;;5074272;28;20640;-68
2023/06/30 01:35:12;;;;;;;4.72;3.30;;;17.10;99.90;;;;;;5074267;28;20628;-68
2023/06/30 01:37:38;;;;;;;7.00;3.20;;;17.20;99.90;;;;;;5073625;28;20211;-67
2023/06/30 01:40:04;;;;;;;5.73;2.87;;;17.10;99.90;;;;;;5073712;28;20169;-67
2023/06/30 01:42:31;;;;;;;5.43;3.20;;;17.10;99.90;;;;;;5074058;28;20265;-68
2023/06/30 01:44:58;;;;;;;7.63;3.07;;;17.10;99.90;;;;;;5074276;28;20165;-67
2023/06/30 01:47:24;;;;;;;5.50;3.17;;;17.10;99.90;;;;;;5074007;28;20251;-66
2023/06/30 01:49:50;;;;;;;5.33;3.10;;;17.00;99.90;;;;;;5073920;28;20196;-69
2023/06/30 01:52:16;;;;;;;6.73;3.40;;;16.90;99.90;;;;;;5074006;28;20665;-67
2023/06/30 01:54:42;;;;;;;7.90;3.43;;;16.90;99.90;;;;;;5073494;28;20161;-69
2023/06/30 01:57:07;;;;;;;9.50;3.43;;;16.80;99.90;;;;;;5073707;28;20215;-68
2023/06/30 01:59:33;;;;;;;7.03;2.93;;;16.70;99.90;;;;;;5073776;28;20172;-68
2023/06/30 02:01:58;;;;;;;7.63;3.23;;;16.70;99.90;;;;;;5073908;28;20620;-69
2023/06/30 02:04:24;;;;;;;9.40;3.40;;;16.60;99.90;;;;;;5073780;28;20168;-71
2023/06/30 02:06:50;;;;;;;7.80;3.47;;;16.50;99.90;;;;;;5073725;28;20173;-68
2023/06/30 02:09:16;;;;;;;10.63;3.43;;;16.40;99.90;;;;;;5073090;28;20208;-69
2023/06/30 02:11:41;;;;;;;8.63;4.20;;;16.30;99.90;;;;;;5073684;28;20172;-67
2023/06/30 02:14:07;;;;;;;8.50;3.17;;;16.20;99.90;;;;;;5073737;28;20184;-68
2023/06/30 02:16:33;;;;;;;8.47;3.50;;;16.10;99.90;;;;;;5073493;28;20683;-66
2023/06/30 02:18:58;;;;;;;7.43;3.30;;;16.00;99.90;;;;;;5073562;28;20531;-69
2023/06/30 02:21:25;;;;;;;11.10;3.60;;;15.90;99.90;;;;;;5073385;28;20207;-66
2023/06/30 02:23:51;;;;;;;8.80;3.80;;;15.90;99.90;;;;;;5073002;28;20179;-65
2023/06/30 02:26:16;;;;;;;9.57;3.40;;;15.80;99.90;;;;;;5073375;28;20259;-66
2023/06/30 02:28:42;;;;;;;7.57;3.80;;;15.80;99.90;;;;;;5072683;28;20673;-66
2023/06/30 02:31:08;;;;;;;8.63;3.63;;;15.70;99.90;;;;;;5073456;28;20176;-68
2023/06/30 02:33:33;;;;;;;9.90;3.90;;;15.60;99.90;;;;;;5073334;28;20615;-66
2023/06/30 02:35:59;;;;;;;8.60;3.47;;;15.50;99.90;;;;;;5073293;28;20172;-66
2023/06/30 02:38:24;;;;;;;8.73;3.60;;;15.40;99.90;;;;;;5072143;28;20690;-66
2023/06/30 02:40:50;;;;;;;6.50;3.73;;;15.40;99.90;;;;;;5073242;28;20172;-67
2023/06/30 02:43:16;;;;;;;6.90;3.70;;;15.30;99.90;;;;;;5073108;28;20243;-65
2023/06/30 02:45:41;;;;;;;5.73;3.60;;;15.30;99.90;;;;;;5073361;28;20565;-66
2023/06/30 02:48:07;;;;;;;12.73;4.23;;;15.30;99.90;;;;;;5073092;28;20260;-67
2023/06/30 02:50:32;;;;;;;6.23;4.20;;;15.30;99.90;;;;;;5072936;28;20527;-66
2023/06/30 02:52:59;;;;;;;8.93;4.10;;;15.20;99.90;;;;;;5072741;28;20173;-68
2023/06/30 02:55:25;;;;;;;7.90;3.33;;;15.20;99.90;;;;;;5072823;28;20678;-66
2023/06/30 02:57:50;;;;;;;10.50;3.57;;;15.10;99.90;;;;;;5072983;28;20231;-65
2023/06/30 03:00:16;;;;;;;6.77;3.03;;;15.10;99.90;;;;;;5073016;28;20580;-66
2023/06/30 03:02:42;;;;;;;6.93;3.60;;;15.10;99.90;;;;;;5072943;28;20252;-66
2023/06/30 03:05:08;;;;;;;8.47;3.97;;;15.00;99.90;;;;;;5072910;28;20210;-66
2023/06/30 03:07:34;;;;;;;8.10;3.90;;;15.00;99.90;;;;;;5072676;28;20173;-66
2023/06/30 03:09:59;;;;;;;10.03;3.87;;;14.90;99.90;;;;;;5073006;28;20172;-66
2023/06/30 03:12:25;;;;;;;7.87;3.60;;;14.80;99.90;;;;;;5054864;28;20183;-66
2023/06/30 03:14:51;;;;;;;8.43;3.90;;;14.60;99.90;;;;;;5054707;28;20217;-66
2023/06/30 03:17:16;;;;;;;6.97;4.10;;;14.60;99.90;;;;;;5072469;28;20208;-66
2023/06/30 03:19:42;;;;;;;8.93;3.43;;;14.60;99.90;;;;;;5072599;28;20260;-65
2023/06/30 03:22:07;;;;;;;7.90;3.47;;;14.60;99.90;;;;;;5072269;28;20188;-66
2023/06/30 03:24:33;;;;;;;11.30;4.13;;;14.60;99.90;;;;;;5072710;28;20176;-67
2023/06/30 03:26:59;;;;;;;9.83;4.30;;;14.70;99.90;;;;;;5072745;28;20638;-66
2023/06/30 03:29:24;;;;;;;8.00;4.00;;;14.60;99.90;;;;;;5072574;28;20191;-66
2023/06/30 03:31:50;;;;;;;9.13;4.17;;;14.60;99.90;;;;;;5072759;28;20279;-65
2023/06/30 03:34:15;;;;;;;9.23;4.40;;;14.60;99.90;;;;;;5072424;28;20172;-66
2023/06/30 03:36:41;;;;;;;9.07;4.37;;;14.60;99.90;;;;;;5071871;28;20648;-66
2023/06/30 03:39:07;;;;;;;15.50;4.50;;;14.60;99.90;;;;;;5072602;28;20235;-67
2023/06/30 03:41:32;;;;;;;15.07;5.57;;;14.50;99.90;;;;;;5076295;28;20172;-66
2023/06/30 03:43:58;;;;;;;14.03;4.90;;;14.50;99.90;;;;;;5076273;28;20250;-66
2023/06/30 03:46:23;;;;;;;10.00;4.93;;;14.50;99.90;;;;;;5075983;28;20179;-67
2023/06/30 03:48:49;;;;;;;12.40;5.27;;;14.60;99.90;;;;;;5076023;28;20168;-67
2023/06/30 03:51:15;;;;;;;12.33;5.07;;;14.60;99.90;;;;;;5075545;28;20173;-68
2023/06/30 03:53:44;;;;;;;11.63;4.70;;;14.70;99.90;;;;;;5076044;28;20169;-66
2023/06/30 03:56:09;;;;;;;10.33;5.67;;;14.80;99.90;;;;;;5075727;28;20222;-67
2023/06/30 03:58:35;;;;;;;9.67;4.73;;;14.90;99.90;;;;;;5075365;28;20180;-67
2023/06/30 04:01:01;;;;;;;11.50;4.60;;;15.00;99.90;;;;;;5075886;28;20188;-67
2023/06/30 04:03:27;;;;;;;12.07;4.73;;;15.20;99.90;;;;;;5075853;28;20635;-67
2023/06/30 04:05:53;;;;;;;12.23;5.43;;;15.40;99.90;;;;;;5075163;28;20183;-68
2023/06/30 04:08:19;;;;;;;10.27;5.20;;;15.60;99.90;;;;;;5075377;28;20189;-67
2023/06/30 04:10:44;;;;;;;10.63;5.30;;;15.80;99.90;;;;;;5075187;28;20611;-66
2023/06/30 04:13:10;;;;;;;12.47;5.40;;;16.10;99.90;;;;;;5075708;28;20165;-66
2023/06/30 04:15:36;;;;;;;10.67;5.73;;;16.40;99.90;;;;;;5075349;28;20530;-66
2023/06/30 04:18:02;;;;;;;11.37;5.47;;;16.80;95.30;;;;;;5075444;28;20718;-67
2023/06/30 04:20:27;;;;;;;11.03;5.90;;;17.20;88.00;;;;;;5074966;28;20211;-67
2023/06/30 04:22:53;;;;;;;13.05;5.82;;;17.60;69.40;;;;;;5075221;28;20173;-68
2023/06/30 04:25:19;;;;;;;9.35;5.35;;;18.20;49.60;;;;;;5075310;28;20191;-68
2023/06/30 04:27:45;;;;;;;9.38;5.15;;;18.60;16.40;;;;;;5075286;28;20175;-66
2023/06/30 04:30:11;;;;;;;9.88;4.90;;;19.20;9.50;;;;;;5075141;28;20628;-67
2023/06/30 04:32:37;;;;;;;11.63;5.00;;;19.80;1.00;;;;;;5075077;28;20230;-68
2023/06/30 04:35:04;;;;;;;9.43;4.80;;;20.30;1.00;;;;;;5074547;28;20526;-68
2023/06/30 04:37:29;;;;;;;9.70;4.60;;;21.00;1.00;;;;;;5075041;28;20212;-68
2023/06/30 04:39:59;;;;;;;7.80;4.75;;;21.60;1.00;;;;;;5074738;28;20241;-69
2023/06/30 04:42:27;;;;;;;12.07;5.28;;;22.50;1.00;;;;;;5074770;28;20199;-68
2023/06/30 04:44:53;;;;;;;9.90;4.85;;;23.40;1.00;;;;;;5075214;28;20207;-69
2023/06/30 04:47:19;;;;;;;8.23;4.43;;;24.10;1.00;;;;;;5074763;28;20169;-69
2023/06/30 04:49:45;;;;;;;5.55;3.97;;;24.90;1.00;;;;;;5074442;28;20214;-70
2023/06/30 04:52:11;;;;;;;7.93;4.45;;;25.40;1.00;;;;;;5073464;28;20176;-70
2023/06/30 04:54:37;;;;;;;9.30;4.38;;;25.60;1.00;;;;;;5074570;28;20230;-70
2023/06/30 04:57:04;;;;;;;9.57;4.47;;;26.00;1.00;;;;;;5074280;28;20212;-69
2023/06/30 04:59:30;;;;;;;8.13;3.97;;;26.50;1.00;;;;;;5074553;28;20234;-70
2023/06/30 05:01:55;;;;;;;8.93;5.32;;;27.10;1.00;;;;;;5074116;28;20631;-69
2023/06/30 05:04:21;;;;;;;7.85;5.15;;;27.60;99.90;;;;;;5074376;28;20175;-71
2023/06/30 05:06:47;;;;;;;9.07;4.93;;;27.70;39.60;;;;;;5074547;28;20638;-70
2023/06/30 05:09:12;;;;;;;9.25;4.65;;;28.20;1.00;;;;;;5073734;28;20165;-70
2023/06/30 05:11:38;;;;;;;8.75;4.53;;;28.10;1.00;;;;;;5073950;28;20659;-70
2023/06/30 05:14:03;;;;;;;9.70;4.68;;;28.50;99.90;;;;;;5074600;28;20628;-70
2023/06/30 05:16:29;;;;;;;8.30;4.55;;;28.00;1.00;;;;;;5073409;28;20164;-68
2023/06/30 05:18:55;;;;;;;8.52;4.50;;;28.40;99.90;;;;;;5073808;28;20172;-71
2023/06/30 05:21:20;;;;;;;8.43;4.70;;;28.80;1.00;;;;;;5073935;28;20256;-70
2023/06/30 05:23:46;;;;;;;8.68;4.70;;;29.20;1.00;;;;;;5074113;28;20183;-71
2023/06/30 05:26:13;;;;;;;8.35;5.10;;;29.60;1.00;;;;;;5073403;28;20650;-70
2023/06/30 05:28:39;;;;;;;10.93;4.50;;;29.90;1.00;;;;;;5073103;28;20164;-71
2023/06/30 05:31:04;;;;;;;13.25;5.10;;;30.50;1.00;;;;;;5073458;28;20195;-70
2023/06/30 05:33:30;;;;;;;11.75;5.00;;;30.10;1.00;;;;;;5073360;28;20173;-71
2023/06/30 05:35:55;;;;;;;6.63;4.57;;;30.60;1.00;;;;;;5073341;28;20187;-71
2023/06/30 05:38:21;;;;;;;13.77;5.00;;;29.60;1.00;;;;;;5073083;28;20273;-71
2023/06/30 05:40:47;;;;;;;11.07;4.43;;;30.00;1.00;;;;;;5073320;28;20628;-70
2023/06/30 05:43:12;;;;;;;9.20;4.65;;;30.70;1.00;;;;;;5072920;28;20179;-70
2023/06/30 05:45:39;;;;;;;9.40;4.72;;;30.50;1.00;;;;;;5073163;28;20164;-71
2023/06/30 05:48:05;;;;;;;5.78;4.13;;;31.00;99.90;;;;;;5073327;28;20256;-69
2023/06/30 05:50:30;;;;;;;9.10;4.75;;;31.10;1.00;;;;;;5072669;28;20264;-70
2023/06/30 05:52:56;;;;;;;9.57;4.68;;;31.40;99.90;;;;;;5073087;28;20620;-70
2023/06/30 05:55:21;;;;;;;6.97;4.30;;;31.90;99.90;;;;;;5073032;28;20585;-71
2023/06/30 05:57:47;;;;;;;10.23;4.65;;;32.40;99.90;;;;;;5072329;28;20212;-71
2023/06/30 06:00:13;;;;;;;8.60;3.83;;;32.10;99.90;;;;;;5072640;28;20175;-71
2023/06/30 06:02:39;;;;;;;6.95;4.32;;;32.00;99.90;;;;;;5071654;28;20176;-70
2023/06/30 06:05:05;;;;;;;8.27;4.18;;;32.70;99.90;;;;;;5072713;28;20191;-71
2023/06/30 06:07:31;;;;;;;7.55;4.82;;;32.50;99.90;;;;;;5072736;28;20173;-71
2023/06/30 06:09:56;;;;;;;8.80;4.85;;;32.90;99.90;;;;;;5072806;28;20214;-70
2023/06/30 06:12:22;;;;;;;7.57;4.57;;;32.50;99.90;;;;;;5072788;28;20549;-72
2023/06/30 06:14:47;;;;;;;10.38;5.40;;;32.00;99.90;;;;;;5072238;28;20193;-72
2023/06/30 06:17:13;;;;;;;6.15;4.72;;;32.70;99.90;;;;;;5072178;28;20678;-72
2023/06/30 06:19:39;;;;;;;7.57;4.30;;;32.90;99.90;;;;;;5072836;28;20173;-71
2023/06/30 06:22:05;;;;;;;6.97;4.05;;;33.00;99.90;;;;;;5072311;28;20200;-71
2023/06/30 06:24:30;;;;;;;6.72;3.70;;;33.10;99.90;;;;;;5072622;28;20208;-71
2023/06/30 06:26:56;;;;;;;6.85;4.13;;;33.80;99.90;;;;;;5072381;28;20168;-71
2023/06/30 06:29:22;;;;;;;6.00;3.03;;;33.60;99.90;;;;;;5071996;28;20247;-71
2023/06/30 06:31:52;;;;;;;7.15;3.10;;;34.10;99.90;;;;;;5072216;28;20173;-71
2023/06/30 06:34:18;;;;;;;4.28;2.88;;;33.70;99.90;;;;;;5072181;28;20203;-71
2023/06/30 06:36:44;;;;;;;7.78;3.80;;;33.90;99.90;;;;;;5072551;28;20716;-73
2023/06/30 06:39:10;;;;;;;8.75;3.80;;;33.90;99.90;;;;;;5072043;28;20220;-72
2023/06/30 06:41:37;;;;;;;3.70;3.13;;;34.50;99.90;;;;;;5072375;28;20169;-71
2023/06/30 06:44:03;;;;;;;3.88;2.80;;;34.50;99.90;;;;;;5072416;28;20202;-70
2023/06/30 06:46:28;;;;;;;4.63;2.80;;;35.10;99.90;;;;;;5072671;28;20623;-72
2023/06/30 06:48:56;;;;;;;16.92;4.57;;;35.40;99.90;;;;;;5071896;28;20176;-72
2023/06/30 06:51:23;;;;;;;9.27;4.05;;;36.10;98.60;;;;;;5054168;28;20284;-71
2023/06/30 06:53:48;;;;;;;6.57;3.03;;;36.60;91.30;;;;;;5072204;28;20164;-72
2023/06/30 06:56:14;;;;;;;6.30;2.20;;;36.60;76.30;;;;;;5071873;28;20228;-72
2023/06/30 06:58:40;;;;;;;5.50;2.38;;;36.20;58.30;;;;;;5071110;28;20654;-71
2023/06/30 07:01:06;;;;;;;4.30;2.30;;;36.80;53.30;;;;;;5072099;28;20172;-71
2023/06/30 07:03:32;;;;;;;5.47;2.28;;;36.30;46.50;;;;;;5072338;28;20673;-72
2023/06/30 07:05:57;;;;;;;4.45;2.13;;;36.40;39.60;;;;;;5072156;28;20167;-71
2023/06/30 07:08:24;;;;;;;3.67;2.80;;;37.10;35.50;;;;;;5071976;28;20195;-72
2023/06/30 07:10:50;;;;;;;2.97;2.22;;;37.30;23.90;;;;;;5071991;28;20160;-71
2023/06/30 07:13:19;;;;;;;4.25;2.10;;;37.10;27.80;;;;;;5071580;28;20174;-70
2023/06/30 07:15:45;;;;;;;7.32;2.20;;;36.20;21.40;;;;;;5075199;28;20222;-69
2023/06/30 07:18:11;;;;;;;5.28;3.05;;;34.90;17.60;;;;;;5067139;28;20210;-69
2023/06/30 07:20:37;;;;;;;9.63;2.40;;;34.40;19.40;;;;;;5071069;28;20195;-72
2023/06/30 07:23:02;;;;;;;4.70;2.60;;;34.70;18.60;;;;;;5067260;28;20537;-72
2023/06/30 07:25:28;;;;;;;5.35;2.80;;;34.70;20.10;;;;;;5056138;28;20180;-72
2023/06/30 07:27:56;;;;;;;2.45;1.80;;;35.00;20.50;;;;;;5075121;28;20168;-72
2023/06/30 07:30:24;;;;;;;7.28;2.42;;;35.20;21.30;;;;;;5056735;28;20184;-72
2023/06/30 07:32:50;;;;;;;4.90;2.00;;;34.70;18.40;;;;;;5075572;28;20215;-71
2023/06/30 07:35:17;;;;;;;4.43;2.00;;;34.00;17.50;;;;;;5067030;28;20174;-72
2023/06/30 07:37:47;;;;;;;4.03;2.28;;;34.40;19.20;;;;;;5054934;28;20280;-70
2023/06/30 07:40:13;;;;;;;2.35;1.48;;;34.60;19.20;;;;;;5068337;28;20192;-71
2023/06/30 07:42:39;;;;;;;4.03;2.00;;;34.00;15.90;;;;;;5056256;28;20183;-71
2023/06/30 07:45:16;;;;;;;4.03;1.98;;;33.70;10.60;;;;;;5075562;28;20177;-71
2023/06/30 07:47:43;;;;;;;8.60;2.55;;;33.40;13.00;;;;;;5075663;28;20321;-73
2023/06/30 07:50:12;;;;;;;5.70;2.20;;;33.40;15.30;;;;;;5074161;28;20629;-69
2023/06/30 07:52:42;;;;;;;3.92;2.17;;;33.70;16.30;;;;;;5074896;28;20183;-69
2023/06/30 07:55:10;;;;;;;3.72;2.53;;;33.70;18.00;;;;;;5061354;28;20287;-71
2023/06/30 07:57:35;;;;;;;4.60;2.67;;;33.00;19.40;;;;;;5074869;28;20604;-67
2023/06/30 08:00:03;;;;;;;2.55;2.15;;;32.60;19.40;;;;;;5074831;28;20270;-69
2023/06/30 08:02:28;;;;;;;4.63;1.73;;;31.60;40.50;;;;;;5074872;28;20168;-69
2023/06/30 08:04:54;;;;;;;4.75;2.08;;;31.40;24.10;;;;;;5075229;28;20738;-69
2023/06/30 08:07:19;;;;;;;3.33;1.65;;;31.50;26.40;;;;;;5075749;28;20199;-69
2023/06/30 08:09:45;;;;;;;3.90;1.50;;;32.60;35.20;;;;;;5074553;28;20265;-70
2023/06/30 08:12:11;;;;;;;2.63;1.67;;;32.20;34.00;;;;;;5074032;28;20180;-69
2023/06/30 08:14:37;;;;;;;3.85;2.08;;;32.80;32.00;;;;;;5072226;28;20219;-69
2023/06/30 08:17:03;;;;;;;3.10;1.80;;;33.40;33.10;;;;;;5073702;28;20671;-69
2023/06/30 08:19:28;;;;;;;5.90;1.90;;;33.40;30.00;;;;;;5059287;28;20168;-71
2023/06/30 08:21:54;;;;;;;4.88;2.20;;;33.90;29.10;;;;;;5073690;28;20199;-69
2023/06/30 08:24:20;;;;;;;4.95;2.15;;;34.30;22.80;;;;;;5074435;28;20180;-70
2023/06/30 08:26:46;;;;;;;3.33;1.80;;;34.60;24.50;;;;;;5071489;28;20536;-72
2023/06/30 08:29:11;;;;;;;4.78;1.90;;;33.90;20.70;;;;;;5074433;28;20245;-71
2023/06/30 08:31:37;;;;;;;5.40;1.67;;;33.10;19.70;;;;;;5074121;28;20262;-71
2023/06/30 08:34:04;;;;;;;2.53;2.20;;;33.60;21.80;;;;;;5074524;28;20209;-71
2023/06/30 08:36:30;;;;;;;5.88;2.13;;;33.50;25.80;;;;;;5073926;28;20197;-71
2023/06/30 08:38:55;;;;;;;6.07;1.95;;;33.70;23.00;;;;;;5073511;28;20276;-71
2023/06/30 08:41:22;;;;;;;5.45;1.90;;;33.80;23.30;;;;;;5072993;28;20210;-70
2023/06/30 08:43:50;;;;;;;4.70;2.45;;;33.90;27.00;;;;;;5056653;28;20649;-71
2023/06/30 08:46:22;;;;;;;2.42;1.60;;;34.00;23.70;;;;;;5055278;28;20172;-70
2023/06/30 08:48:49;;;;;;;3.70;1.67;;;33.20;21.00;;;;;;5073718;28;20639;-71
2023/06/30 08:51:15;;;;;;;1.80;1.30;;;32.80;17.60;;;;;;5073553;28;20180;-70
2023/06/30 08:53:41;;;;;;;3.28;1.80;;;32.40;9.70;;;;;;5055549;28;20180;-70
2023/06/30 08:56:08;;;;;;;3.47;1.42;;;32.90;10.40;;;;;;5055683;28;20186;-70
2023/06/30 08:58:34;;;;;;;1.85;1.55;;;33.10;14.70;;;;;;5072683;28;20394;-71
2023/06/30 09:01:00;;;;;;;3.15;1.88;;;32.60;8.70;;;;;;5073767;28;20255;-69
2023/06/30 09:03:27;;;;;;;1.55;1.40;;;33.70;13.10;;;;;;5072802;28;20200;-70
2023/06/30 09:05:55;;;;;;;3.80;1.70;;;33.80;11.50;;;;;;5073466;28;20632;-70
2023/06/30 09:08:25;;;;;;;3.08;1.60;;;33.30;10.80;;;;;;5073263;28;20184;-68
2023/06/30 09:10:53;;;;;;;2.63;1.50;;;31.70;8.00;;;;;;5073062;28;20172;-68
2023/06/30 09:13:21;;;;;;;2.35;2.13;;;30.90;11.20;;;;;;5072796;28;20180;-69
2023/06/30 09:15:47;;;;;;;3.60;1.67;;;30.30;14.40;;;;;;5073167;28;20185;-69
2023/06/30 09:18:13;;;;;;;6.78;1.70;;;30.10;29.10;;;;;;5073157;28;20195;-69
2023/06/30 09:20:39;;;;;;;2.95;1.50;;;30.50;43.20;;;;;;5072937;28;20196;-69
2023/06/30 09:23:05;;;;;;;3.33;1.80;;;29.40;49.00;;;;;;5073011;28;20765;-67
2023/06/30 09:25:33;;;;;;;1.70;1.60;;;29.80;69.90;;;;;;5073224;28;20224;-67
2023/06/30 09:27:59;;;;;;;6.75;1.98;;;30.50;81.50;;;;;;5073029;28;20169;-67
2023/06/30 09:30:32;;;;;;;3.08;1.63;;;31.00;77.60;;;;;;5072036;28;20176;-67
2023/06/30 09:32:57;;;;;;;2.80;1.83;;;31.00;71.50;;;;;;5073076;28;20172;-66
2023/06/30 09:35:23;;;;;;;2.35;1.60;;;30.90;64.30;;;;;;5072761;28;20504;-68
2023/06/30 09:37:49;;;;;;;2.20;1.60;;;30.00;56.10;;;;;;5072351;28;20192;-67
2023/06/30 09:40:15;;;;;;;2.08;1.50;;;29.60;55.60;;;;;;5072699;28;20180;-68
2023/06/30 09:42:43;;;;;;;5.22;1.92;;;29.10;57.10;;;;;;5072673;28;20180;-67
2023/06/30 09:45:10;;;;;;;1.92;1.80;;;29.00;73.20;;;;;;5072530;28;20222;-68
2023/06/30 09:47:35;;;;;;;5.00;1.85;;;28.40;99.90;;;;;;5072444;28;20223;-67
2023/06/30 09:50:01;;;;;;;4.22;1.60;;;27.70;99.90;;;;;;5072498;28;20219;-68
2023/06/30 09:52:30;;;;;;;5.05;1.67;;;27.90;99.90;;;;;;5072270;28;20183;-67
2023/06/30 09:54:56;;;;;;;5.13;1.95;;;28.40;99.90;;;;;;5072441;28;20244;-67
2023/06/30 09:57:27;;;;;;;8.20;2.20;;;28.20;99.90;;;;;;5072265;28;20208;-68
2023/06/30 09:59:52;;;;;;;2.17;1.70;;;29.00;99.90;;;;;;5056159;28;20256;-68
2023/06/30 10:02:18;;;;;;;2.40;1.60;;;28.90;99.90;;;;;;5070717;28;20343;-69
2023/06/30 10:04:44;;;;;;;4.13;1.70;;;28.50;99.90;;;;;;5070744;28;20169;-70
2023/06/30 10:07:13;;;;;;;2.05;1.58;;;28.50;99.90;;;;;;5070230;28;20228;-69
2023/06/30 10:09:41;;;;;;;3.60;1.73;;;29.10;99.90;;;;;;5071714;28;20169;-68
2023/06/30 10:12:09;;;;;;;2.90;1.80;;;29.80;99.90;;;;;;5071454;28;20199;-66
2023/06/30 10:14:36;;;;;;;2.28;1.65;;;29.00;99.90;;;;;;5072441;28;20176;-66
2023/06/30 10:17:03;;;;;;;2.28;1.55;;;27.20;99.90;;;;;;5072519;28;20220;-66
2023/06/30 10:19:29;;;;;;;3.85;1.77;;;27.10;99.90;;;;;;5071365;28;20172;-70
2023/06/30 10:21:56;;;;;;;5.13;2.03;;;26.90;99.90;;;;;;5071100;28;20204;-69
2023/06/30 10:24:32;;;;;;;4.78;2.00;;;26.70;99.90;;;;;;5057276;28;20177;-66
2023/06/30 10:27:00;;;;;;;3.88;2.00;;;26.40;99.90;;;;;;5056377;28;20173;-67
2023/06/30 10:29:26;;;;;;;4.25;2.03;;;26.00;1.00;;;;;;5070597;28;20176;-68
2023/06/30 10:31:52;;;;;;;5.00;2.00;;;25.70;1.00;;;;;;5071273;28;20157;-70
2023/06/30 10:34:18;;;;;;;2.70;1.92;;;25.80;1.00;;;;;;5072309;28;20524;-69
2023/06/30 10:36:45;;;;;;;1.95;1.60;;;25.90;1.00;;;;;;5072494;28;20173;-69
2023/06/30 10:39:11;;;;;;;3.70;1.77;;;25.80;1.00;;;;;;5072178;28;20224;-68
2023/06/30 10:41:47;;;;;;;4.28;2.22;;;25.80;1.00;;;;;;5072482;28;20217;-69
2023/06/30 10:44:14;;;;;;;4.68;2.05;;;25.70;1.00;;;;;;5072785;28;20164;-67
2023/06/30 10:46:55;;;;;;;5.50;2.00;;;25.30;99.90;;;;;;5072713;28;20180;-68
2023/06/30 10:49:39;;;;;;;3.45;2.00;;;25.30;1.00;;;;;;5071708;28;20168;-67
2023/06/30 10:52:09;;;;;;;5.35;1.60;;;25.60;1.00;;;;;;5071485;28;20605;-69
2023/06/30 10:54:42;;;;;;;2.08;1.70;;;25.70;1.00;;;;;;5072506;28;20169;-69
2023/06/30 10:57:15;;;;;;;2.30;1.50;;;25.60;1.00;;;;;;5072304;28;20299;-68
2023/06/30 10:59:46;;;;;;;5.35;1.80;;;25.70;1.00;;;;;;5072133;28;20173;-68
2023/06/30 11:02:17;;;;;;;1.83;1.63;;;25.40;1.00;;;;;;5072412;28;20200;-68
2023/06/30 11:04:47;;;;;;;2.05;1.83;;;25.20;1.00;;;;;;5071990;28;20161;-69
2023/06/30 11:07:24;;;;;;;4.53;1.67;;;25.10;1.00;;;;;;5072369;28;20177;-68
2023/06/30 11:09:50;;;;;;;4.18;2.08;;;25.20;1.00;;;;;;5072103;28;20728;-68
2023/06/30 11:12:18;;;;;;;3.13;1.92;;;25.20;1.00;;;;;;5072182;28;20255;-68
2023/06/30 11:15:00;;;;;;;4.53;1.73;;;25.20;1.00;;;;;;5072004;28;20176;-69
2023/06/30 11:17:55;;;;;;;4.75;2.00;;;24.60;1.00;;;;;;5072156;28;20238;-68
2023/06/30 11:20:27;;;;;;;3.00;1.80;;;24.90;1.00;;;;;;5071527;28;20674;-70
2023/06/30 11:23:00;;;;;;;3.33;1.80;;;25.10;1.00;;;;;;5053448;28;20173;-69
2023/06/30 11:25:27;;;;;;;5.82;2.08;;;25.20;1.00;;;;;;5071947;28;20171;-68
2023/06/30 11:27:54;;;;;;;2.78;1.52;;;24.80;1.00;;;;;;5072106;28;20203;-69
2023/06/30 11:30:21;;;;;;;1.83;1.63;;;24.60;1.00;;;;;;5071961;28;20199;-67
2023/06/30 11:32:48;;;;;;;2.72;1.75;;;24.40;1.00;;;;;;5071414;28;20248;-68
2023/06/30 11:35:17;;;;;;;5.93;1.80;;;24.80;1.00;;;;;;5071795;28;20172;-67
2023/06/30 11:37:51;;;;;;;2.92;1.70;;;25.10;1.00;;;;;;5071741;28;20722;-70
2023/06/30 11:40:17;;;;;;;3.95;2.00;;;26.00;1.00;;;;;;5071950;28;20173;-69
2023/06/30 11:42:43;;;;;;;1.92;1.70;;;26.00;1.00;;;;;;5072304;28;20184;-71
2023/06/30 11:45:09;;;;;;;4.20;2.17;;;25.50;1.00;;;;;;5071672;28;20175;-69
2023/06/30 11:47:38;;;;;;;5.13;2.15;;;25.40;20.70;;;;;;5071720;28;20204;-70
2023/06/30 11:50:11;;;;;;;6.72;2.17;;;26.10;1.00;;;;;;5071361;28;20168;-69
2023/06/30 11:52:39;;;;;;;2.22;2.00;;;26.60;1.00;;;;;;5071379;28;20648;-69
2023/06/30 11:55:08;;;;;;;2.15;1.88;;;26.00;1.00;;;;;;5072062;28;20692;-69
2023/06/30 11:57:39;;;;;;;3.30;2.05;;;26.20;1.00;;;;;;5071894;28;20205;-69
2023/06/30 12:00:09;;;;;;;2.53;2.30;;;26.30;1.00;;;;;;5071704;28;20157;-68
2023/06/30 12:02:34;;;;;;;3.60;2.28;;;26.20;1.00;;;;;;5074303;28;20183;-68
2023/06/30 12:05:01;;;;;;;4.40;2.22;;;25.60;99.90;;;;;;5075617;28;20310;-69
2023/06/30 12:07:27;;;;;;;4.22;2.53;;;25.20;1.00;;;;;;5074551;28;20250;-69
2023/06/30 12:10:00;;;;;;;4.07;2.53;;;25.30;99.90;;;;;;5075372;28;20169;-70
2023/06/30 12:12:27;;;;;;;5.45;2.20;;;25.50;99.90;;;;;;5075081;28;20234;-69
2023/06/30 12:14:53;;;;;;;3.22;2.13;;;25.70;99.90;;;;;;5075421;28;20650;-70
2023/06/30 12:17:18;;;;;;;4.28;2.50;;;26.00;1.00;;;;;;5074642;28;20208;-70
2023/06/30 12:19:44;;;;;;;4.78;2.60;;;25.60;29.30;;;;;;5075241;28;20164;-71
2023/06/30 12:22:12;;;;;;;3.75;2.58;;;25.10;99.90;;;;;;5074803;28;20173;-69
2023/06/30 12:24:41;;;;;;;5.15;2.40;;;24.90;1.00;;;;;;5074349;28;20180;-69
2023/06/30 12:27:08;;;;;;;2.30;2.08;;;24.60;99.90;;;;;;5074477;28;20173;-69
2023/06/30 12:29:35;;;;;;;4.20;2.42;;;24.90;1.00;;;;;;5075176;28;20191;-70
2023/06/30 12:32:14;;;;;;;3.60;2.28;;;25.30;1.00;;;;;;5074289;28;20169;-70
2023/06/30 12:34:40;;;;;;;6.22;2.65;;;25.40;99.90;;;;;;5074461;28;20647;-71
2023/06/30 12:37:05;;;;;;;4.25;2.58;;;25.50;99.90;;;;;;5073724;28;20239;-70
2023/06/30 12:39:32;;;;;;;4.78;2.50;;;25.60;99.90;;;;;;5074628;28;20683;-71
2023/06/30 12:41:57;;;;;;;5.40;2.65;;;25.70;99.90;;;;;;5074852;28;20248;-70
2023/06/30 12:44:23;;;;;;;4.95;2.78;;;25.40;99.90;;;;;;5074581;28;20592;-70
2023/06/30 12:47:03;;;;;;;3.10;2.70;;;24.90;1.00;;;;;;5074256;28;20169;-70